createdAt,value
2022-09-02T00:02:37.902Z,98202.63
2022-09-02T00:05:40.175Z,98203.78
2022-09-02T00:08:43.280Z,98204.44
2022-09-02T00:11:47.285Z,98196.50
2022-09-02T00:14:49.509Z,98198.63
2022-09-02T00:17:51.441Z,98203.75
2022-09-02T00:20:53.774Z,98206.69
2022-09-02T00:23:58.095Z,98204.75
2022-09-02T00:26:59.928Z,98201.44
2022-09-02T00:30:02.439Z,98197.94
2022-09-02T00:33:04.979Z,98195.13
2022-09-02T00:36:07.073Z,98192.16
2022-09-02T00:39:09.433Z,98187.19
2022-09-02T00:42:12.231Z,98190.81
2022-09-02T00:45:15.415Z,98193.13
2022-09-02T00:48:17.400Z,98190.13
2022-09-02T00:51:19.345Z,98195.06
2022-09-02T00:54:23.312Z,98187.34
2022-09-02T00:57:48.838Z,98191.66
2022-09-02T01:00:53.125Z,98185.03
2022-09-02T01:03:55.650Z,98183.75
2022-09-02T01:07:00.113Z,98182.59
2022-09-02T01:10:04.082Z,98196.44
2022-09-02T01:13:17.382Z,98189.22
2022-09-02T01:16:34.018Z,98192.84
2022-09-02T01:19:40.084Z,98185.41
2022-09-02T01:22:42.515Z,98184.94
2022-09-02T01:25:44.845Z,98180.47
2022-09-02T01:28:47.379Z,98185.75
2022-09-02T01:31:49.591Z,98187.25
2022-09-02T01:34:52.269Z,98181.66
2022-09-02T01:37:56.537Z,98182.50
2022-09-02T01:40:59.273Z,98181.66
2022-09-02T01:44:02.217Z,98172.75
2022-09-02T01:47:04.535Z,98183.31
2022-09-02T01:50:07.703Z,98180.34
2022-09-02T01:53:09.991Z,98179.03
2022-09-02T01:56:12.339Z,98182.97
2022-09-02T01:59:18.091Z,98185.31
2022-09-02T02:02:21.055Z,98180.38
2022-09-02T02:05:23.169Z,98181.09
2022-09-02T02:08:27.329Z,98177.44
2022-09-02T02:11:32.951Z,98173.66
2022-09-02T02:14:36.145Z,98172.50
2022-09-02T02:17:41.900Z,98176.47
2022-09-02T02:20:45.175Z,98177.94
2022-09-02T02:23:47.254Z,98174.94
2022-09-02T02:26:49.493Z,98179.41
2022-09-02T02:29:54.624Z,98179.75
2022-09-02T02:32:58.168Z,98177.09
2022-09-02T02:36:01.748Z,98181.75
2022-09-02T02:39:05.826Z,98177.28
2022-09-02T02:42:08.267Z,98179.09
2022-09-02T02:45:15.251Z,98182.22
2022-09-02T02:48:18.632Z,98172.16
2022-09-02T02:51:20.670Z,98174.81
2022-09-02T02:54:27.496Z,98171.84
2022-09-02T02:57:39.429Z,98182.75
2022-09-02T03:00:42.700Z,98178.44
2022-09-02T03:03:44.851Z,98182.09
2022-09-02T03:06:47.786Z,98190.63
2022-09-02T03:09:50.254Z,98183.38
2022-09-02T03:12:52.672Z,98184.69
2022-09-02T03:15:56.504Z,98175.63
2022-09-02T03:18:58.685Z,98183.06
2022-09-02T03:22:01.050Z,98185.03
2022-09-02T03:25:03.571Z,98181.75
2022-09-02T03:28:05.549Z,98181.59
2022-09-02T03:31:08.991Z,98184.06
2022-09-02T03:34:12.208Z,98185.06
2022-09-02T03:37:14.955Z,98186.03
2022-09-02T03:40:20.402Z,98184.38
2022-09-02T03:43:23.430Z,98185.38
2022-09-02T03:46:25.871Z,98184.72
2022-09-02T03:49:28.935Z,98181.09
2022-09-02T03:52:31.010Z,98182.91
2022-09-02T03:55:34.404Z,98182.59
2022-09-02T03:58:36.856Z,98176.16
2022-09-02T04:01:40.755Z,98176.50
2022-09-02T04:04:43.280Z,98178.47
2022-09-02T04:07:47.035Z,98176.81
2022-09-02T04:10:51.244Z,98177.13
2022-09-02T04:13:54.025Z,98188.34
2022-09-02T04:16:59.253Z,98185.72
2022-09-02T04:20:02.628Z,98183.22
2022-09-02T04:23:07.497Z,98185.38
2022-09-02T04:26:12.891Z,98185.72
2022-09-02T04:29:16.984Z,98186.19
2022-09-02T04:32:23.137Z,98188.69
2022-09-02T04:35:26.317Z,98190.34
2022-09-02T04:38:28.911Z,98188.84
2022-09-02T04:41:32.605Z,98194.47
2022-09-02T04:44:38.672Z,98192.66
2022-09-02T04:47:41.445Z,98197.13
2022-09-02T04:50:44.059Z,98192.34
2022-09-02T04:53:48.816Z,98194.94
2022-09-02T04:56:51.224Z,98189.03
2022-09-02T04:59:58.486Z,98190.00
2022-09-02T05:03:00.892Z,98185.72
2022-09-02T05:06:08.153Z,98188.34
2022-09-02T05:09:16.188Z,98193.28
2022-09-02T05:12:19.747Z,98188.00
2022-09-02T05:15:29.646Z,98196.75
2022-09-02T05:18:32.472Z,98199.91
2022-09-02T05:21:40.802Z,98191.97
2022-09-02T05:24:43.773Z,98200.72
2022-09-02T05:27:48.264Z,98194.25
2022-09-02T05:30:51.262Z,98201.50
2022-09-02T05:33:53.611Z,98186.31
2022-09-02T05:36:58.611Z,98194.22
2022-09-02T05:40:05.881Z,98190.91
2022-09-02T05:43:13.289Z,98192.03
2022-09-02T05:46:20.383Z,98191.19
2022-09-02T05:49:23.036Z,98205.41
2022-09-02T05:52:35.843Z,98195.97
2022-09-02T05:55:39.846Z,98204.81
2022-09-02T05:58:42.919Z,98197.63
2022-09-02T06:01:47.847Z,98198.03
2022-09-02T06:04:54.890Z,98204.00
2022-09-02T06:07:58.301Z,98209.97
2022-09-02T06:11:04.074Z,98205.78
2022-09-02T06:14:08.260Z,98208.28
2022-09-02T06:17:16.179Z,98203.06
2022-09-02T06:20:24.609Z,98201.97
2022-09-02T06:23:27.747Z,98201.94
2022-09-02T06:26:30.260Z,98201.72
2022-09-02T06:29:33.502Z,98199.56
2022-09-02T06:32:36.072Z,98198.25
2022-09-02T06:35:45.877Z,98201.88
2022-09-02T06:38:53.458Z,98200.22
2022-09-02T06:41:57.335Z,98198.41
2022-09-02T06:45:04.243Z,98203.44
2022-09-02T06:48:08.434Z,98203.56
2022-09-02T06:51:29.716Z,98205.75
2022-09-02T06:54:34.247Z,98204.88
2022-09-02T06:57:45.899Z,98204.09
2022-09-02T07:00:49.466Z,98201.69
2022-09-02T07:04:10.661Z,98191.09
2022-09-02T07:07:14.822Z,98187.13
2022-09-02T07:10:27.157Z,98191.44
2022-09-02T07:13:31.122Z,98192.31
2022-09-02T07:16:42.034Z,98192.72
2022-09-02T07:19:44.950Z,98181.59
2022-09-02T07:22:47.264Z,98193.22
2022-09-02T07:25:51.653Z,98196.25
2022-09-02T07:28:55.251Z,98187.50
2022-09-02T07:31:59.153Z,98185.84
2022-09-02T07:35:06.633Z,98182.97
2022-09-02T07:38:11.863Z,98182.59
2022-09-02T07:41:14.757Z,98185.19
2022-09-02T07:44:18.807Z,98180.53
2022-09-02T07:47:21.346Z,98184.16
2022-09-02T07:50:27.511Z,98179.53
2022-09-02T07:53:32.968Z,98177.34
2022-09-02T07:56:35.924Z,98173.50
2022-09-02T07:59:39.181Z,98188.19
2022-09-02T08:02:43.547Z,98191.16
2022-09-02T08:05:52.525Z,98176.53
2022-09-02T08:08:56.240Z,98172.47
2022-09-02T08:11:59.522Z,98177.41
2022-09-02T08:15:03.182Z,98171.31
2022-09-02T08:18:07.181Z,98174.75
2022-09-02T08:21:10.606Z,98172.75
2022-09-02T08:24:12.845Z,98172.56
2022-09-02T08:27:15.101Z,98170.94
2022-09-02T08:30:18.014Z,98162.38
2022-09-02T08:33:20.194Z,98163.81
2022-09-02T08:36:22.624Z,98158.06
2022-09-02T08:39:25.417Z,98159.91
2022-09-02T08:42:33.863Z,98155.78
2022-09-02T08:45:37.768Z,98153.53
2022-09-02T08:48:49.580Z,98155.56
2022-09-02T08:51:57.061Z,98158.25
2022-09-02T08:55:03.987Z,98157.44
2022-09-02T09:01:14.852Z,98152.03
2022-09-02T09:04:44.545Z,98142.47
2022-09-02T09:07:49.438Z,98141.13
2022-09-02T09:11:00.127Z,98140.28
2022-09-02T09:14:15.278Z,98137.06
2022-09-02T09:17:21.923Z,98141.00
2022-09-02T09:20:28.851Z,98129.78
2022-09-02T09:23:41.199Z,98133.34
2022-09-02T09:26:44.621Z,98138.56
2022-09-02T09:29:48.042Z,98129.00
2022-09-02T09:32:55.178Z,98131.66
2022-09-02T09:35:58.830Z,98130.28
2022-09-02T09:39:17.155Z,98124.56
2022-09-02T09:42:31.188Z,98125.19
2022-09-02T09:45:42.195Z,98123.25
2022-09-02T09:48:50.118Z,98130.28
2022-09-02T09:51:56.599Z,98124.28
2022-09-02T09:55:08.504Z,98116.66
2022-09-02T09:58:11.184Z,98115.25
2022-09-02T10:01:27.291Z,98123.38
2022-09-02T10:04:47.707Z,98111.97
2022-09-02T10:07:59.577Z,98118.44
2022-09-02T10:11:05.910Z,98120.41
2022-09-02T10:14:12.071Z,98108.56
2022-09-02T10:17:23.067Z,98109.34
2022-09-02T10:21:15.745Z,98109.66
2022-09-02T10:24:49.280Z,98099.53
2022-09-02T10:28:18.559Z,98099.09
2022-09-02T10:34:57.121Z,98093.09
2022-09-02T10:38:12.427Z,98091.38
2022-09-02T10:41:46.806Z,98093.34
2022-09-02T10:45:15.134Z,98090.00
2022-09-02T10:48:30.227Z,98096.13
2022-09-02T10:51:46.161Z,98090.09
2022-09-02T10:55:10.486Z,98084.94
2022-09-02T10:58:21.349Z,98085.44
2022-09-02T11:01:30.571Z,98081.09
2022-09-02T11:04:41.315Z,98090.03
2022-09-02T11:07:58.894Z,98084.47
2022-09-02T11:11:07.827Z,98096.72
2022-09-02T11:14:24.447Z,98081.53
2022-09-02T11:17:38.185Z,98080.47
2022-09-02T11:21:00.497Z,98081.00
2022-09-02T11:24:16.143Z,98079.13
2022-09-02T11:27:42.926Z,98072.94
2022-09-02T11:31:18.050Z,98079.50
2022-09-02T11:34:47.381Z,98069.81
2022-09-02T11:37:58.547Z,98069.38
2022-09-02T11:41:42.442Z,98062.47
2022-09-02T11:45:00.697Z,98057.00
2022-09-02T11:48:21.564Z,98051.56
2022-09-02T11:51:23.859Z,98051.81
2022-09-02T11:54:31.125Z,98053.81
2022-09-02T11:57:41.511Z,98045.59
2022-09-02T12:00:57.041Z,98036.28
2022-09-02T12:07:48.732Z,98032.34
2022-09-02T12:10:51.515Z,98033.88
2022-09-02T12:13:53.896Z,98022.00
2022-09-02T12:17:03.881Z,98020.41
2022-09-02T12:20:09.142Z,98026.41
2022-09-02T12:23:49.018Z,98021.03
2022-09-02T12:26:53.510Z,98018.41
2022-09-02T12:29:56.116Z,98012.59
2022-09-02T12:33:16.322Z,98005.47
2022-09-02T12:36:36.650Z,98010.28
2022-09-02T12:39:43.976Z,98012.81
2022-09-02T12:42:48.376Z,98007.97
2022-09-02T12:45:50.840Z,98006.84
2022-09-02T12:49:06.511Z,97998.94
2022-09-02T12:52:14.072Z,98010.41
2022-09-02T12:55:16.064Z,98005.81
2022-09-02T12:58:21.602Z,98007.66
2022-09-02T13:01:48.952Z,97996.53
2022-09-02T13:05:00.620Z,97992.34
2022-09-02T13:08:14.893Z,97998.38
2022-09-02T13:11:45.148Z,97981.25
2022-09-02T13:15:12.989Z,97982.78
2022-09-02T13:18:42.240Z,97989.84
2022-09-02T13:21:50.918Z,97979.69
2022-09-02T13:25:00.416Z,97981.44
2022-09-02T13:28:29.179Z,97981.34
2022-09-02T13:31:31.969Z,97986.13
2022-09-02T13:34:42.564Z,97976.94
2022-09-02T13:37:46.563Z,97979.03
2022-09-02T13:40:53.484Z,97967.19
2022-09-02T13:44:13.550Z,97965.19
2022-09-02T13:47:22.754Z,97971.97
2022-09-02T13:50:27.574Z,97970.75
2022-09-02T13:53:45.586Z,97979.16
2022-09-02T13:57:06.739Z,97971.47
2022-09-02T14:00:09.901Z,97966.06
2022-09-02T14:03:25.784Z,97966.50
2022-09-02T14:06:36.805Z,97972.50
2022-09-02T14:09:40.363Z,97976.13
2022-09-02T14:12:42.654Z,97979.47
2022-09-02T14:15:47.276Z,97973.56
2022-09-02T14:19:10.594Z,97968.56
2022-09-02T14:22:30.165Z,97965.28
2022-09-02T14:25:53.626Z,97961.63
2022-09-02T14:29:02.065Z,97961.56
2022-09-02T14:32:13.611Z,97977.06
2022-09-02T14:35:18.799Z,97968.41
2022-09-02T14:38:25.572Z,97964.72
2022-09-02T14:41:32.389Z,97963.84
2022-09-02T14:44:36.523Z,97960.81
2022-09-02T14:47:39.814Z,97961.56
2022-09-02T14:50:42.195Z,97965.38
2022-09-02T14:53:45.981Z,97952.03
2022-09-02T14:56:53.860Z,97952.97
2022-09-02T14:59:57.641Z,97952.75
2022-09-02T15:03:02.825Z,97948.81
2022-09-02T15:06:10.793Z,97948.97
2022-09-02T15:09:16.763Z,97949.13
2022-09-02T15:12:30.347Z,97951.50
2022-09-02T15:15:32.166Z,97954.75
2022-09-02T15:18:40.070Z,97951.22
2022-09-02T15:21:41.915Z,97945.94
2022-09-02T15:24:44.337Z,97949.78
2022-09-02T15:27:46.348Z,97957.16
2022-09-02T15:30:49.603Z,97957.25
2022-09-02T15:33:52.434Z,97950.69
2022-09-02T15:36:55.515Z,97951.53
2022-09-02T15:40:00.572Z,97951.69
2022-09-02T15:43:02.496Z,97952.84
2022-09-02T15:46:16.715Z,97949.63
2022-09-02T15:49:19.130Z,97949.72
2022-09-02T15:52:21.155Z,97945.94
2022-09-02T15:55:29.235Z,97954.09
2022-09-02T15:58:31.638Z,97956.53
2022-09-02T16:01:39.023Z,97957.00
2022-09-02T16:04:41.502Z,97942.59
2022-09-02T16:07:43.628Z,97954.47
2022-09-02T16:10:45.572Z,97949.47
2022-09-02T16:13:48.058Z,97952.97
2022-09-02T16:16:58.252Z,97956.63
2022-09-02T16:20:00.373Z,97953.06
2022-09-02T16:23:02.772Z,97950.63
2022-09-02T16:26:13.286Z,97956.00
2022-09-02T16:29:16.809Z,97961.28
2022-09-02T16:32:27.270Z,97953.06
2022-09-02T16:35:38.364Z,97958.69
2022-09-02T16:38:40.704Z,97961.31
2022-09-02T16:41:51.221Z,97949.81
2022-09-02T16:44:53.220Z,97954.28
2022-09-02T16:47:55.810Z,97955.84
2022-09-02T16:51:02.852Z,97950.72
2022-09-02T16:54:05.469Z,97953.53
2022-09-02T16:57:07.854Z,97951.38
2022-09-02T17:00:10.506Z,97954.34
2022-09-02T17:03:13.732Z,97953.06
2022-09-02T17:06:15.933Z,97951.94
2022-09-02T17:09:17.994Z,97954.94
2022-09-02T17:12:20.070Z,97956.91
2022-09-02T17:15:22.430Z,97961.72
2022-09-02T17:18:24.356Z,97954.81
2022-09-02T17:21:42.830Z,97966.34
2022-09-02T17:24:45.065Z,97963.91
2022-09-02T17:27:47.193Z,97965.81
2022-09-02T17:30:49.464Z,97953.97
2022-09-02T17:33:53.770Z,97961.19
2022-09-02T17:36:55.687Z,97963.44
2022-09-02T17:39:57.790Z,97968.97
2022-09-02T17:43:00.926Z,97972.91
2022-09-02T17:46:09.621Z,97975.59
2022-09-02T17:49:17.210Z,97973.97
2022-09-02T17:52:24.289Z,97981.75
2022-09-02T17:55:26.803Z,97981.50
2022-09-02T17:58:36.203Z,97986.19
2022-09-02T18:01:50.693Z,97983.97
2022-09-02T18:04:58.670Z,97992.38
2022-09-02T18:08:25.908Z,97987.41
2022-09-02T18:11:28.883Z,97991.50
2022-09-02T18:14:41.128Z,97991.88
2022-09-02T18:17:50.848Z,97997.56
2022-09-02T18:21:02.049Z,97999.78
2022-09-02T18:24:14.725Z,97997.94
2022-09-02T18:27:24.693Z,98006.75
2022-09-02T18:30:56.496Z,98013.78
2022-09-02T18:34:30.287Z,98007.22
2022-09-02T18:37:48.853Z,98014.38
2022-09-02T18:41:22.355Z,98009.44
2022-09-02T18:45:01.451Z,98019.22
2022-09-02T18:48:08.503Z,98018.41
2022-09-02T18:51:30.566Z,98011.88
2022-09-02T18:55:00.374Z,98020.78
2022-09-02T18:58:32.203Z,98022.53
2022-09-02T19:01:41.309Z,98021.91
2022-09-02T19:04:43.917Z,98020.56
2022-09-02T19:08:05.739Z,98025.75
2022-09-02T19:11:14.501Z,98020.81
2022-09-02T19:14:26.759Z,98024.72
2022-09-02T19:17:28.954Z,98023.22
2022-09-02T19:20:31.496Z,98021.00
2022-09-02T19:23:34.702Z,98028.88
2022-09-02T19:26:38.680Z,98026.38
2022-09-02T19:29:43.786Z,98032.03
2022-09-02T19:32:48.302Z,98031.16
2022-09-02T19:35:51.422Z,98033.16
2022-09-02T19:38:54.469Z,98031.81
2022-09-02T19:41:57.334Z,98040.25
2022-09-02T19:45:00.970Z,98042.09
2022-09-02T19:48:07.415Z,98041.03
2022-09-02T19:51:14.206Z,98053.75
2022-09-02T19:54:20.611Z,98050.28
2022-09-02T19:57:22.894Z,98043.88
2022-09-02T20:00:28.206Z,98046.97
2022-09-02T20:03:30.809Z,98046.16
2022-09-02T20:06:33.804Z,98046.53
2022-09-02T20:09:35.923Z,98044.44
2022-09-02T20:12:37.864Z,98043.91
2022-09-02T20:15:40.115Z,98037.53
2022-09-02T20:18:45.192Z,98047.16
2022-09-02T20:21:47.415Z,98039.34
2022-09-02T20:24:50.018Z,98044.97
2022-09-02T20:28:23.360Z,98056.25
2022-09-02T20:31:32.213Z,98049.91
2022-09-02T20:34:39.863Z,98042.03
2022-09-02T20:37:52.497Z,98048.06
2022-09-02T20:41:03.003Z,98048.75
2022-09-02T20:44:08.545Z,98065.22
2022-09-02T20:47:24.688Z,98064.59
2022-09-02T20:50:44.871Z,98067.50
2022-09-02T20:54:00.768Z,98067.50
2022-09-02T20:57:09.833Z,98061.25
2022-09-02T21:00:14.093Z,98069.81
2022-09-02T21:03:17.955Z,98070.38
2022-09-02T21:06:26.292Z,98067.41
2022-09-02T21:09:43.254Z,98070.13
2022-09-02T21:12:57.504Z,98067.84
2022-09-02T21:16:03.061Z,98067.78
2022-09-02T21:19:06.490Z,98063.84
2022-09-02T21:22:29.561Z,98069.78
2022-09-02T21:25:51.102Z,98069.28
2022-09-02T21:29:05.635Z,98073.34
2022-09-02T21:32:24.998Z,98074.09
2022-09-02T21:35:43.341Z,98069.94
2022-09-02T21:38:46.321Z,98069.63
2022-09-02T21:42:14.418Z,98064.06
2022-09-02T21:45:19.242Z,98067.69
2022-09-02T21:48:44.319Z,98067.69
2022-09-02T21:51:51.238Z,98060.00
2022-09-02T21:55:05.233Z,98066.91
2022-09-02T21:58:18.619Z,98063.44
2022-09-02T22:02:01.697Z,98065.63
2022-09-02T22:05:23.995Z,98071.78
2022-09-02T22:08:40.057Z,98071.44
2022-09-02T22:11:47.840Z,98070.47
2022-09-02T22:15:01.950Z,98067.91
2022-09-02T22:18:25.020Z,98070.69
2022-09-02T22:21:48.723Z,98064.75
2022-09-02T22:24:52.299Z,98068.19
2022-09-02T22:28:02.814Z,98071.38
2022-09-02T22:31:11.356Z,98061.63
2022-09-02T22:34:16.405Z,98069.22
2022-09-02T22:37:22.545Z,98066.59
2022-09-02T22:40:26.410Z,98064.28
2022-09-02T22:43:36.076Z,98060.69
2022-09-02T22:47:16.222Z,98062.69
2022-09-02T22:50:40.762Z,98065.00
2022-09-02T22:53:42.938Z,98053.97
2022-09-02T22:56:51.131Z,98053.16
2022-09-02T22:59:59.057Z,98051.50
2022-09-02T23:03:43.541Z,98057.47
2022-09-02T23:06:45.462Z,98058.47
2022-09-02T23:09:50.736Z,98063.06
2022-09-02T23:13:22.037Z,98063.09
2022-09-02T23:16:35.282Z,98057.16
2022-09-02T23:19:59.243Z,98055.84
2022-09-02T23:23:11.145Z,98056.81
2022-09-02T23:26:34.832Z,98052.41
2022-09-02T23:29:40.283Z,98047.13
2022-09-02T23:33:09.093Z,98047.13
2022-09-02T23:36:11.936Z,98047.63
2022-09-02T23:39:20.869Z,98042.84
2022-09-02T23:42:23.330Z,98038.72
2022-09-02T23:45:33.048Z,98044.19
2022-09-02T23:48:59.910Z,98040.69
2022-09-02T23:52:10.883Z,98035.06
2022-09-02T23:55:20.077Z,98043.16
2022-09-02T23:58:28.406Z,98040.06
